Earl Gonsoulin — WDC3306 — position and weather

sailwx.info

Track history (hours):
 
Tides and Currents Weather Stations Pressure Air Temp Water Temp Dewpoint Dewpoint Depression Visibility Wind Speed Wind Dir Waves Ship Positions

Earl Gonsoulin

Owner: LeBeouf Bros. Towing, L.L.C., Houma, LA. More information available from US FCC via Universal Licensing System and Coast Guard Vessel Documentation Center.

Last reported at 2017-Sep-19 07:21 UTC. Time now 2017-Sep-19 22:35 UTC.
Position N 29°48' W 092°15'.

Length 21 m; draft 3 m.

Type: Tug. MMSI: 367005550.

Date/timePositionNaut miles runAvg speedWind from/ knotsBaromVisibWave heightAir tempDewpointWater temp
2017-Sep-19 07:21N 29°48' W 092°15'1 3.2
2017-Sep-19 07:01N 29°48' W 092°14'2 3.3
2017-Sep-19 06:30N 29°47' W 092°12'2 3.3
2017-Sep-19 06:01N 29°47' W 092°11'2 4.1
2017-Sep-19 05:30N 29°47' W 092°08'62 4.1
2017-Sep-18 14:17N 29°36' W 090°58'2 4.8
2017-Sep-18 13:51N 29°34' W 090°57'2 5.2
2017-Sep-18 13:29N 29°33' W 090°55'2 4.2
2017-Sep-18 13:01N 29°32' W 090°53'2 4.7
2017-Sep-18 12:31N 29°32' W 090°50'3 5.2
2017-Sep-18 12:01N 29°32' W 090°47'2 4.3
2017-Sep-18 11:31N 29°33' W 090°45'2 3.3
2017-Sep-18 11:00N 29°34' W 090°43'2 3.9
2017-Sep-18 10:30N 29°36' W 090°43'1 2.9
2017-Sep-18 10:01N 29°36' W 090°41'2 4.6
2017-Sep-18 09:30N 29°35' W 090°39'2 4.5
2017-Sep-18 09:00N 29°35' W 090°36'2 4.5
2017-Sep-18 08:29N 29°34' W 090°34'2 4.7
2017-Sep-18 08:01N 29°34' W 090°31'  
2017-Sep-13 18:39N 29°33' W 090°26'1 6.8
2017-Sep-13 18:26N 29°33' W 090°28'3 6.8
2017-Sep-13 18:00N 29°34' W 090°31'4 2.8
2017-Sep-13 16:36N 29°35' W 090°36'0 2.1
2017-Sep-13 16:30N 29°35' W 090°36'0 0.1
2017-Sep-13 16:00N 29°35' W 090°36'0 0.4
2017-Sep-13 15:30N 29°35' W 090°36'0 0.4
2017-Sep-13 15:00N 29°35' W 090°36'0 0.6
2017-Sep-13 14:30N 29°35' W 090°36'1 1.0
2017-Sep-13 13:59N 29°34' W 090°36'0 0.0
2017-Sep-13 13:30N 29°34' W 090°36'0 0.0
2017-Sep-13 13:00N 29°34' W 090°36'0 0.0
2017-Sep-13 12:30N 29°34' W 090°36'0 0.0
2017-Sep-13 12:00N 29°34' W 090°36'0 0.0
2017-Sep-13 11:30N 29°34' W 090°36'0 0.0
2017-Sep-13 11:00N 29°34' W 090°36'0 0.0
2017-Sep-13 10:31N 29°34' W 090°36'0 0.0
2017-Sep-13 10:01N 29°34' W 090°36'0 0.0
2017-Sep-13 09:31N 29°34' W 090°36'0 0.0
2017-Sep-13 09:01N 29°34' W 090°36'0 0.0
2017-Sep-13 08:31N 29°34' W 090°36'0 0.0
2017-Sep-13 08:00N 29°34' W 090°36'0 0.0
2017-Sep-13 07:31N 29°34' W 090°36'0 0.0
2017-Sep-13 06:57N 29°34' W 090°36'0 0.0
2017-Sep-13 06:29N 29°34' W 090°36'0 0.0
2017-Sep-13 06:00N 29°34' W 090°36'0 0.0
2017-Sep-13 05:30N 29°34' W 090°36'0 0.0
2017-Sep-13 05:00N 29°34' W 090°36'0 0.0
2017-Sep-13 04:31N 29°34' W 090°36'0 0.0
2017-Sep-13 04:00N 29°34' W 090°36'0 0.0
2017-Sep-13 03:29N 29°34' W 090°36'0 0.0
2017-Sep-13 03:00N 29°34' W 090°36'0 0.0
2017-Sep-13 02:30N 29°34' W 090°36'0 0.0
2017-Sep-13 02:00N 29°34' W 090°36'0 0.0
2017-Sep-13 01:31N 29°34' W 090°36'0 0.0
2017-Sep-13 01:01N 29°34' W 090°36'0 0.0
2017-Sep-13 00:30N 29°34' W 090°36'0 0.0
2017-Sep-13 00:00N 29°34' W 090°36'0 0.0
2017-Sep-12 23:18N 29°34' W 090°36'0 0.0
2017-Sep-12 23:00N 29°34' W 090°36'0 0.0
2017-Sep-12 22:30N 29°34' W 090°36'0 0.0
2017-Sep-12 22:01N 29°34' W 090°36'0 0.0
2017-Sep-12 21:31N 29°34' W 090°36'0 0.0
2017-Sep-12 21:00N 29°34' W 090°36'0 0.0
2017-Sep-12 20:06N 29°34' W 090°36'0 0.0
2017-Sep-12 19:59N 29°34' W 090°36'0 0.0
2017-Sep-12 19:30N 29°34' W 090°36'0 0.0
2017-Sep-12 19:01N 29°34' W 090°36'0 0.0
2017-Sep-12 18:31N 29°34' W 090°36'1 1.0
2017-Sep-12 18:01N 29°35' W 090°36'0 0.2
2017-Sep-12 17:31N 29°35' W 090°36'0 0.7
2017-Sep-12 17:01N 29°35' W 090°36'0 0.6
2017-Sep-12 16:31N 29°35' W 090°36'0 0.8
2017-Sep-12 16:01N 29°35' W 090°35'0 0.4
2017-Sep-12 15:31N 29°35' W 090°36'0 0.3
2017-Sep-12 15:00N 29°35' W 090°36'0 0.8
2017-Sep-12 14:31N 29°35' W 090°36'0 1.0
2017-Sep-12 14:00N 29°34' W 090°36'0 0.1
2017-Sep-12 13:29N 29°34' W 090°36'0 0.0
2017-Sep-12 12:59N 29°34' W 090°36'0 0.0
2017-Sep-11 21:58N 29°35' W 090°36'1 2.7
2017-Sep-11 21:28N 29°35' W 090°37'3 6.4
2017-Sep-11 21:00N 29°36' W 090°40'2 4.0
2017-Sep-11 20:31N 29°36' W 090°43'2 4.4
2017-Sep-11 20:01N 29°34' W 090°44'1 2.9
2017-Sep-11 19:31N 29°33' W 090°45'1 1.1
2017-Sep-11 19:00N 29°33' W 090°46'71 5.5
2017-Sep-11 06:05N 29°48' W 092°05'1 7.3
2017-Sep-11 05:57N 29°48' W 092°06'3 6.5
2017-Sep-11 05:29N 29°47' W 092°10'3 5.7
2017-Sep-11 05:00N 29°47' W 092°13'2 3.4
2017-Sep-11 04:28N 29°48' W 092°15'46 5.8
2017-Sep-10 20:33N 29°56' W 093°07'0 6.1
2017-Sep-10 20:31N 29°56' W 093°07'3 5.4
2017-Sep-10 20:00N 29°57' W 093°10'3 6.0
2017-Sep-10 19:31N 29°59' W 093°13'2 4.3
2017-Sep-10 19:01N 30°01' W 093°14'2 3.1
2017-Sep-10 18:31N 30°02' W 093°15'2 3.4
2017-Sep-10 18:00N 30°04' W 093°16'2 5.0
2017-Sep-10 17:31N 30°05' W 093°18'1 1.2
2017-Sep-10 17:01N 30°06' W 093°18'0 0.0
2017-Sep-10 16:30N 30°06' W 093°18'0 0.1
2017-Sep-10 16:00N 30°06' W 093°18'1 2.4
2017-Sep-10 15:31N 30°06' W 093°20'3 6.4
2017-Sep-10 15:00N 30°09' W 093°20'6 6.3
2017-Sep-10 14:00N 30°14' W 093°15'0 0.0
2017-Sep-10 12:50N 30°14' W 093°15'0 0.0
2017-Sep-10 12:30N 30°14' W 093°15'0 0.0
2017-Sep-10 11:57N 30°14' W 093°15'0 0.0
2017-Sep-10 09:03N 30°14' W 093°15'0 0.0
2017-Sep-10 08:54N 30°14' W 093°15'0 0.0
2017-Sep-10 02:36N 30°14' W 093°15'0 0.0
2017-Sep-10 02:30N 30°14' W 093°15'0 0.0
2017-Sep-10 01:36N 30°14' W 093°15'0 0.1
2017-Sep-10 01:31N 30°14' W 093°15'0 0.0
2017-Sep-10 01:00N 30°14' W 093°15'0 0.0
2017-Sep-10 00:30N 30°14' W 093°15'0 0.0
2017-Sep-10 00:00N 30°14' W 093°15'0 0.0
2017-Sep-09 23:29N 30°14' W 093°15'0 0.0
2017-Sep-09 23:00N 30°14' W 093°15'0 0.0
2017-Sep-09 22:30N 30°14' W 093°15'0 0.0
2017-Sep-09 21:58N 30°14' W 093°15'0 0.0
2017-Sep-09 21:30N 30°14' W 093°15'0 0.0
2017-Sep-09 21:00N 30°14' W 093°15'0 0.0
2017-Sep-09 20:30N 30°14' W 093°15'0 0.0
2017-Sep-09 20:00N 30°14' W 093°15'0 0.0
2017-Sep-09 19:29N 30°14' W 093°15'0 0.0
2017-Sep-09 18:59N 30°14' W 093°15'0 0.0
2017-Sep-09 18:27N 30°14' W 093°15'0 0.0
2017-Sep-09 17:58N 30°14' W 093°15'0 0.0
2017-Sep-09 17:30N 30°14' W 093°15'0 0.0
2017-Sep-09 17:00N 30°14' W 093°15'0 0.0
2017-Sep-09 16:28N 30°14' W 093°15'0 0.0
2017-Sep-09 15:58N 30°14' W 093°15'0 0.0
2017-Sep-09 15:14N 30°14' W 093°15'0 0.0
2017-Sep-09 14:53N 30°14' W 093°15'0 0.3
2017-Sep-09 14:29N 30°14' W 093°16'  
Track history (hours):
 
Tides and Currents Weather Stations Pressure Air Temp Water Temp Dewpoint Dewpoint Depression Visibility Wind Speed Wind Dir Waves Ship Positions

Earl Gonsoulin

Owner: LeBeouf Bros. Towing, L.L.C., Houma, LA. More information available from US FCC via Universal Licensing System and Coast Guard Vessel Documentation Center.

Last reported at 2017-Sep-19 07:21 UTC. Time now 2017-Sep-19 22:35 UTC.
Position N 29°48' W 092°15'.

Length 21 m; draft 3 m.

Type: Tug. MMSI: 367005550.

Date/timePositionNaut miles runAvg speedWind from/ knotsBaromVisibWave heightAir tempDewpointWater temp
2017-Sep-19 07:21N 29°48' W 092°15'1 3.2
2017-Sep-19 07:01N 29°48' W 092°14'2 3.3
2017-Sep-19 06:30N 29°47' W 092°12'2 3.3
2017-Sep-19 06:01N 29°47' W 092°11'2 4.1
2017-Sep-19 05:30N 29°47' W 092°08'62 4.1
2017-Sep-18 14:17N 29°36' W 090°58'2 4.8
2017-Sep-18 13:51N 29°34' W 090°57'2 5.2
2017-Sep-18 13:29N 29°33' W 090°55'2 4.2
2017-Sep-18 13:01N 29°32' W 090°53'2 4.7
2017-Sep-18 12:31N 29°32' W 090°50'3 5.2
2017-Sep-18 12:01N 29°32' W 090°47'2 4.3
2017-Sep-18 11:31N 29°33' W 090°45'2 3.3
2017-Sep-18 11:00N 29°34' W 090°43'2 3.9
2017-Sep-18 10:30N 29°36' W 090°43'1 2.9
2017-Sep-18 10:01N 29°36' W 090°41'2 4.6
2017-Sep-18 09:30N 29°35' W 090°39'2 4.5
2017-Sep-18 09:00N 29°35' W 090°36'2 4.5
2017-Sep-18 08:29N 29°34' W 090°34'2 4.7
2017-Sep-18 08:01N 29°34' W 090°31'  
2017-Sep-13 18:39N 29°33' W 090°26'1 6.8
2017-Sep-13 18:26N 29°33' W 090°28'3 6.8
2017-Sep-13 18:00N 29°34' W 090°31'4 2.8
2017-Sep-13 16:36N 29°35' W 090°36'0 2.1
2017-Sep-13 16:30N 29°35' W 090°36'0 0.1
2017-Sep-13 16:00N 29°35' W 090°36'0 0.4
2017-Sep-13 15:30N 29°35' W 090°36'0 0.4
2017-Sep-13 15:00N 29°35' W 090°36'0 0.6
2017-Sep-13 14:30N 29°35' W 090°36'1 1.0
2017-Sep-13 13:59N 29°34' W 090°36'0 0.0
2017-Sep-13 13:30N 29°34' W 090°36'0 0.0
2017-Sep-13 13:00N 29°34' W 090°36'0 0.0
2017-Sep-13 12:30N 29°34' W 090°36'0 0.0
2017-Sep-13 12:00N 29°34' W 090°36'0 0.0
2017-Sep-13 11:30N 29°34' W 090°36'0 0.0
2017-Sep-13 11:00N 29°34' W 090°36'0 0.0
2017-Sep-13 10:31N 29°34' W 090°36'0 0.0
2017-Sep-13 10:01N 29°34' W 090°36'0 0.0
2017-Sep-13 09:31N 29°34' W 090°36'0 0.0
2017-Sep-13 09:01N 29°34' W 090°36'0 0.0
2017-Sep-13 08:31N 29°34' W 090°36'0 0.0
2017-Sep-13 08:00N 29°34' W 090°36'0 0.0
2017-Sep-13 07:31N 29°34' W 090°36'0 0.0
2017-Sep-13 06:57N 29°34' W 090°36'0 0.0
2017-Sep-13 06:29N 29°34' W 090°36'0 0.0
2017-Sep-13 06:00N 29°34' W 090°36'0 0.0
2017-Sep-13 05:30N 29°34' W 090°36'0 0.0
2017-Sep-13 05:00N 29°34' W 090°36'0 0.0
2017-Sep-13 04:31N 29°34' W 090°36'0 0.0
2017-Sep-13 04:00N 29°34' W 090°36'0 0.0
2017-Sep-13 03:29N 29°34' W 090°36'0 0.0
2017-Sep-13 03:00N 29°34' W 090°36'0 0.0
2017-Sep-13 02:30N 29°34' W 090°36'0 0.0
2017-Sep-13 02:00N 29°34' W 090°36'0 0.0
2017-Sep-13 01:31N 29°34' W 090°36'0 0.0
2017-Sep-13 01:01N 29°34' W 090°36'0 0.0
2017-Sep-13 00:30N 29°34' W 090°36'0 0.0
2017-Sep-13 00:00N 29°34' W 090°36'0 0.0
2017-Sep-12 23:18N 29°34' W 090°36'0 0.0
2017-Sep-12 23:00N 29°34' W 090°36'0 0.0
2017-Sep-12 22:30N 29°34' W 090°36'0 0.0
2017-Sep-12 22:01N 29°34' W 090°36'0 0.0
2017-Sep-12 21:31N 29°34' W 090°36'0 0.0
2017-Sep-12 21:00N 29°34' W 090°36'0 0.0
2017-Sep-12 20:06N 29°34' W 090°36'0 0.0
2017-Sep-12 19:59N 29°34' W 090°36'0 0.0
2017-Sep-12 19:30N 29°34' W 090°36'0 0.0
2017-Sep-12 19:01N 29°34' W 090°36'0 0.0
2017-Sep-12 18:31N 29°34' W 090°36'1 1.0
2017-Sep-12 18:01N 29°35' W 090°36'0 0.2
2017-Sep-12 17:31N 29°35' W 090°36'0 0.7
2017-Sep-12 17:01N 29°35' W 090°36'0 0.6
2017-Sep-12 16:31N 29°35' W 090°36'0 0.8
2017-Sep-12 16:01N 29°35' W 090°35'0 0.4
2017-Sep-12 15:31N 29°35' W 090°36'0 0.3
2017-Sep-12 15:00N 29°35' W 090°36'0 0.8
2017-Sep-12 14:31N 29°35' W 090°36'0 1.0
2017-Sep-12 14:00N 29°34' W 090°36'0 0.1
2017-Sep-12 13:29N 29°34' W 090°36'0 0.0
2017-Sep-12 12:59N 29°34' W 090°36'0 0.0
2017-Sep-11 21:58N 29°35' W 090°36'1 2.7
2017-Sep-11 21:28N 29°35' W 090°37'3 6.4
2017-Sep-11 21:00N 29°36' W 090°40'2 4.0
2017-Sep-11 20:31N 29°36' W 090°43'2 4.4
2017-Sep-11 20:01N 29°34' W 090°44'1 2.9
2017-Sep-11 19:31N 29°33' W 090°45'1 1.1
2017-Sep-11 19:00N 29°33' W 090°46'71 5.5
2017-Sep-11 06:05N 29°48' W 092°05'1 7.3
2017-Sep-11 05:57N 29°48' W 092°06'3 6.5
2017-Sep-11 05:29N 29°47' W 092°10'3 5.7
2017-Sep-11 05:00N 29°47' W 092°13'2 3.4
2017-Sep-11 04:28N 29°48' W 092°15'46 5.8
2017-Sep-10 20:33N 29°56' W 093°07'0 6.1
2017-Sep-10 20:31N 29°56' W 093°07'3 5.4
2017-Sep-10 20:00N 29°57' W 093°10'3 6.0
2017-Sep-10 19:31N 29°59' W 093°13'2 4.3
2017-Sep-10 19:01N 30°01' W 093°14'2 3.1
2017-Sep-10 18:31N 30°02' W 093°15'2 3.4
2017-Sep-10 18:00N 30°04' W 093°16'2 5.0
2017-Sep-10 17:31N 30°05' W 093°18'1 1.2
2017-Sep-10 17:01N 30°06' W 093°18'0 0.0
2017-Sep-10 16:30N 30°06' W 093°18'0 0.1
2017-Sep-10 16:00N 30°06' W 093°18'1 2.4
2017-Sep-10 15:31N 30°06' W 093°20'3 6.4
2017-Sep-10 15:00N 30°09' W 093°20'6 6.3
2017-Sep-10 14:00N 30°14' W 093°15'0 0.0
2017-Sep-10 12:50N 30°14' W 093°15'0 0.0
2017-Sep-10 12:30N 30°14' W 093°15'0 0.0
2017-Sep-10 11:57N 30°14' W 093°15'0 0.0
2017-Sep-10 09:03N 30°14' W 093°15'0 0.0
2017-Sep-10 08:54N 30°14' W 093°15'0 0.0
2017-Sep-10 02:36N 30°14' W 093°15'0 0.0
2017-Sep-10 02:30N 30°14' W 093°15'0 0.0
2017-Sep-10 01:36N 30°14' W 093°15'0 0.1
2017-Sep-10 01:31N 30°14' W 093°15'0 0.0
2017-Sep-10 01:00N 30°14' W 093°15'0 0.0
2017-Sep-10 00:30N 30°14' W 093°15'0 0.0
2017-Sep-10 00:00N 30°14' W 093°15'0 0.0
2017-Sep-09 23:29N 30°14' W 093°15'0 0.0
2017-Sep-09 23:00N 30°14' W 093°15'0 0.0
2017-Sep-09 22:30N 30°14' W 093°15'0 0.0
2017-Sep-09 21:58N 30°14' W 093°15'0 0.0
2017-Sep-09 21:30N 30°14' W 093°15'0 0.0
2017-Sep-09 21:00N 30°14' W 093°15'0 0.0
2017-Sep-09 20:30N 30°14' W 093°15'0 0.0
2017-Sep-09 20:00N 30°14' W 093°15'0 0.0
2017-Sep-09 19:29N 30°14' W 093°15'0 0.0
2017-Sep-09 18:59N 30°14' W 093°15'0 0.0
2017-Sep-09 18:27N 30°14' W 093°15'0 0.0
2017-Sep-09 17:58N 30°14' W 093°15'0 0.0
2017-Sep-09 17:30N 30°14' W 093°15'0 0.0
2017-Sep-09 17:00N 30°14' W 093°15'0 0.0
2017-Sep-09 16:28N 30°14' W 093°15'0 0.0
2017-Sep-09 15:58N 30°14' W 093°15'0 0.0
2017-Sep-09 15:14N 30°14' W 093°15'0 0.0
2017-Sep-09 14:53N 30°14' W 093°15'0 0.3
2017-Sep-09 14:29N 30°14' W 093°16'  

Dump ship's entire track history